Time;durP1;ratioP1;P1;durP2;ratioP2;P2;SDS_P1;SDS_P2;PMS_P1;PMS_P2;Temp;Humidity;BMP_temperature;BMP_pressure;BME280_temperature;BME280_humidity;BME280_pressure;Samples;Min_cycle;Max_cycle;Signal;HPM_P1;HPM_P2
2022/12/20 00:00:43;;;;;;;8.63;4.90;;;8.80;99.90;;;;;;5082950;28;20404;-75
2022/12/20 00:03:09;;;;;;;8.93;4.45;;;8.70;99.90;;;;;;5084548;28;20406;-75
2022/12/20 00:05:39;;;;;;;6.33;4.67;;;8.70;99.90;;;;;;5087191;28;20441;-75
2022/12/20 00:08:06;;;;;;;8.57;4.70;;;8.80;99.90;;;;;;5087408;28;20409;-75
2022/12/20 00:10:40;;;;;;;6.67;4.57;;;8.80;99.90;;;;;;5092318;28;20482;-75
2022/12/20 00:13:06;;;;;;;8.57;4.72;;;8.80;99.90;;;;;;5086867;28;20410;-75
2022/12/20 00:15:32;;;;;;;7.70;4.40;;;8.80;99.90;;;;;;5087607;28;20390;-75
2022/12/20 00:17:58;;;;;;;8.47;5.00;;;8.80;99.90;;;;;;5087104;28;20434;-75
2022/12/20 00:20:25;;;;;;;8.27;5.27;;;8.80;99.90;;;;;;5087783;28;20406;-75
2022/12/20 00:22:51;;;;;;;8.23;4.68;;;8.80;99.90;;;;;;5094232;28;20429;-75
2022/12/20 00:25:17;;;;;;;7.05;4.50;;;8.80;99.90;;;;;;5087679;28;20786;-75
2022/12/20 00:27:43;;;;;;;8.88;4.70;;;8.80;99.90;;;;;;5084892;28;20939;-75
2022/12/20 00:30:09;;;;;;;8.95;5.00;;;8.80;99.90;;;;;;5086360;28;20435;-75
2022/12/20 00:32:34;;;;;;;8.30;4.50;;;8.80;99.90;;;;;;5092624;28;20436;-75
2022/12/20 00:35:00;;;;;;;6.40;4.10;;;8.80;99.90;;;;;;5094390;28;20526;-75
2022/12/20 00:37:26;;;;;;;7.47;4.57;;;8.70;99.90;;;;;;5088966;28;20510;-75
2022/12/20 00:39:51;;;;;;;8.07;3.77;;;8.70;99.90;;;;;;5072999;28;20411;-75
2022/12/20 00:42:17;;;;;;;9.10;4.50;;;8.70;99.90;;;;;;5092158;28;20405;-75
2022/12/20 00:44:43;;;;;;;8.03;4.33;;;8.70;99.90;;;;;;5091029;28;20406;-75
2022/12/20 00:47:09;;;;;;;7.38;4.55;;;8.60;99.90;;;;;;5090232;28;20451;-75
2022/12/20 00:49:34;;;;;;;7.90;4.28;;;8.60;99.90;;;;;;5093685;28;20398;-75
2022/12/20 00:52:00;;;;;;;6.87;4.00;;;8.60;99.90;;;;;;5091214;28;20510;-75
2022/12/20 00:54:25;;;;;;;6.65;3.95;;;8.70;99.90;;;;;;5085601;28;20400;-75
2022/12/20 00:56:51;;;;;;;7.10;3.80;;;8.70;99.90;;;;;;5089262;28;20907;-74
2022/12/20 00:59:16;;;;;;;7.20;4.07;;;8.70;99.90;;;;;;5081764;28;20431;-75
2022/12/20 01:01:42;;;;;;;6.73;3.77;;;8.70;99.90;;;;;;5092357;28;20449;-75
2022/12/20 01:04:08;;;;;;;7.40;4.22;;;8.70;99.90;;;;;;5093716;28;20452;-75
2022/12/20 01:06:33;;;;;;;6.93;3.60;;;8.70;99.90;;;;;;5093333;28;20965;-75
2022/12/20 01:09:00;;;;;;;6.13;3.58;;;8.70;99.90;;;;;;5089420;28;20437;-75
2022/12/20 01:11:29;;;;;;;5.63;3.58;;;8.80;99.90;;;;;;5089613;28;20407;-75
2022/12/20 01:13:59;;;;;;;6.18;3.50;;;8.80;99.90;;;;;;5084592;28;20419;-75
2022/12/20 01:16:40;;;;;;;4.90;3.33;;;8.80;99.90;;;;;;5093326;28;20462;-75
2022/12/20 01:19:07;;;;;;;5.22;3.60;;;8.80;99.90;;;;;;5091161;28;20427;-75
2022/12/20 01:21:34;;;;;;;6.45;3.33;;;8.80;99.90;;;;;;5094018;28;20393;-75
2022/12/20 01:23:59;;;;;;;6.05;3.50;;;8.80;99.90;;;;;;5093575;28;20908;-75
2022/12/20 01:26:27;;;;;;;6.90;3.90;;;8.80;99.90;;;;;;5093896;28;20943;-75
2022/12/20 01:28:56;;;;;;;7.53;3.47;;;8.80;99.90;;;;;;5085520;28;20406;-75
2022/12/20 01:31:22;;;;;;;6.47;3.45;;;8.80;99.90;;;;;;5093708;28;20429;-75
2022/12/20 01:33:49;;;;;;;4.10;3.10;;;8.90;99.90;;;;;;5084523;28;20398;-75
2022/12/20 01:36:18;;;;;;;5.78;2.97;;;9.00;99.90;;;;;;5087320;28;20740;-75
2022/12/20 01:38:44;;;;;;;5.68;3.20;;;9.00;99.90;;;;;;5087641;28;20430;-75
2022/12/20 01:41:18;;;;;;;4.55;3.00;;;9.00;99.90;;;;;;5089989;28;20401;-75
2022/12/20 01:43:57;;;;;;;5.72;3.03;;;9.10;99.90;;;;;;5084169;28;20399;-75
2022/12/20 01:46:25;;;;;;;4.75;2.88;;;9.10;99.90;;;;;;5078541;28;20415;-75
2022/12/20 01:48:59;;;;;;;4.85;3.35;;;9.10;99.90;;;;;;5088511;28;20418;-75
2022/12/20 01:51:27;;;;;;;5.25;3.10;;;9.20;99.90;;;;;;5090383;28;20405;-75
2022/12/20 01:54:09;;;;;;;5.43;2.97;;;9.20;99.90;;;;;;5079895;28;20390;-75
2022/12/20 01:56:36;;;;;;;5.23;3.00;;;9.20;99.90;;;;;;5090109;28;20410;-75
2022/12/20 01:59:02;;;;;;;6.18;3.13;;;9.20;99.90;;;;;;5085135;28;20942;-75
2022/12/20 02:01:27;;;;;;;6.10;3.08;;;9.20;99.90;;;;;;5077878;28;20394;-75
2022/12/20 02:03:54;;;;;;;6.13;2.72;;;9.10;99.90;;;;;;5085115;28;20404;-75
2022/12/20 02:06:23;;;;;;;5.60;2.67;;;9.10;99.90;;;;;;5082416;28;20406;-75
2022/12/20 02:08:51;;;;;;;4.25;2.70;;;9.10;99.90;;;;;;5084484;28;20910;-75
2022/12/20 02:11:31;;;;;;;4.63;2.85;;;9.10;99.90;;;;;;5086921;28;20406;-75
2022/12/20 02:14:02;;;;;;;4.88;2.72;;;9.10;99.90;;;;;;5088335;28;20908;-75
2022/12/20 02:16:44;;;;;;;4.93;2.40;;;9.10;99.90;;;;;;5079707;28;20415;-75
2022/12/20 02:19:29;;;;;;;5.43;2.92;;;9.20;99.90;;;;;;5088836;28;20470;-75
2022/12/20 02:22:11;;;;;;;4.82;2.88;;;9.10;99.90;;;;;;5080226;28;20420;-75
2022/12/20 02:25:05;;;;;;;5.15;2.90;;;9.20;99.90;;;;;;5082242;28;20491;-75
2022/12/20 02:27:58;;;;;;;5.68;2.80;;;9.30;99.90;;;;;;5075387;28;20431;-75
2022/12/20 02:30:27;;;;;;;4.78;2.75;;;9.30;99.90;;;;;;5084966;28;20420;-75
2022/12/20 02:33:02;;;;;;;5.03;2.80;;;9.20;99.90;;;;;;5083720;28;20404;-74
2022/12/20 02:35:32;;;;;;;4.90;2.80;;;9.20;99.90;;;;;;5074136;28;20451;-75
2022/12/20 02:38:00;;;;;;;5.95;2.83;;;9.20;99.90;;;;;;5084548;28;20427;-75
2022/12/20 02:40:40;;;;;;;4.00;2.67;;;9.20;99.90;;;;;;5069592;28;20408;-75
2022/12/20 02:45:14;;;;;;;4.65;2.47;;;9.20;99.90;;;;;;5076965;28;20407;-75
2022/12/20 02:45:57;;;;;;;4.47;2.55;;;9.20;99.90;;;;;;5078509;28;20406;-75
2022/12/20 02:48:26;;;;;;;5.18;2.70;;;9.20;99.90;;;;;;5090290;28;20411;-75
2022/12/20 02:50:56;;;;;;;6.40;3.20;;;9.20;99.90;;;;;;5084026;28;20408;-75
2022/12/20 02:53:22;;;;;;;5.22;2.83;;;9.20;99.90;;;;;;5082148;28;20828;-75
2022/12/20 02:56:00;;;;;;;4.77;2.40;;;9.20;99.90;;;;;;5078655;28;20434;-75
2022/12/20 02:58:29;;;;;;;5.45;2.65;;;9.20;99.90;;;;;;5088423;28;20434;-75
2022/12/20 03:00:58;;;;;;;5.03;2.45;;;9.20;99.90;;;;;;5088372;28;20770;-75
2022/12/20 03:03:24;;;;;;;4.82;2.60;;;9.20;99.90;;;;;;5084165;28;20928;-75
2022/12/20 03:05:53;;;;;;;4.32;2.50;;;9.20;99.90;;;;;;5081593;28;20499;-75
2022/12/20 03:08:20;;;;;;;4.70;2.80;;;9.20;99.90;;;;;;5081884;28;20408;-75
2022/12/20 03:10:46;;;;;;;4.97;2.50;;;9.20;99.90;;;;;;5086228;28;20401;-75
2022/12/20 03:13:12;;;;;;;5.88;2.90;;;9.30;99.90;;;;;;5081245;28;20518;-75
2022/12/20 03:15:37;;;;;;;4.65;3.08;;;9.30;99.90;;;;;;5085769;28;20755;-75
2022/12/20 03:18:03;;;;;;;6.43;3.20;;;9.30;99.90;;;;;;5088063;28;20433;-75
2022/12/20 03:20:29;;;;;;;6.80;3.15;;;9.20;99.90;;;;;;5087992;28;20835;-75
2022/12/20 03:22:55;;;;;;;5.30;3.00;;;9.30;99.90;;;;;;5088635;28;20474;-75
2022/12/20 03:25:20;;;;;;;4.97;3.07;;;9.20;99.90;;;;;;5088156;28;20465;-75
2022/12/20 03:27:46;;;;;;;5.97;3.10;;;9.20;99.90;;;;;;5080657;28;20488;-75
2022/12/20 03:30:13;;;;;;;6.25;3.50;;;9.10;99.90;;;;;;5078326;28;20402;-75
2022/12/20 03:32:38;;;;;;;7.03;3.50;;;9.10;99.90;;;;;;5080117;28;20398;-75
2022/12/20 03:35:04;;;;;;;6.90;3.20;;;9.10;99.90;;;;;;5079659;28;20398;-75
2022/12/20 03:37:30;;;;;;;5.88;3.40;;;9.10;99.90;;;;;;5066572;28;20513;-75
2022/12/20 03:39:55;;;;;;;8.02;3.70;;;9.10;99.90;;;;;;5086076;28;20397;-75
2022/12/20 03:42:21;;;;;;;5.50;3.60;;;9.00;99.90;;;;;;5084260;28;20409;-75
2022/12/20 03:44:47;;;;;;;6.80;3.60;;;9.00;99.90;;;;;;5087861;28;20455;-75
2022/12/20 03:47:12;;;;;;;6.20;3.77;;;9.00;99.90;;;;;;5087916;28;20448;-75
2022/12/20 03:49:38;;;;;;;5.22;3.78;;;8.90;99.90;;;;;;5087501;28;20445;-75
2022/12/20 03:52:04;;;;;;;7.25;3.95;;;8.90;99.90;;;;;;5088183;28;20414;-75
2022/12/20 03:54:30;;;;;;;5.47;3.50;;;8.90;99.90;;;;;;5087347;28;20428;-75
2022/12/20 03:56:56;;;;;;;7.23;3.83;;;8.90;99.90;;;;;;5072003;28;20439;-75
2022/12/20 03:59:21;;;;;;;5.40;3.97;;;8.90;99.90;;;;;;5084207;28;20630;-75
2022/12/20 04:01:47;;;;;;;5.77;3.87;;;8.90;99.90;;;;;;5087900;28;20890;-75
2022/12/20 04:04:14;;;;;;;5.95;3.85;;;8.80;99.90;;;;;;5087253;28;20487;-75
2022/12/20 04:06:39;;;;;;;6.10;4.20;;;8.90;99.90;;;;;;5086474;28;20409;-75
2022/12/20 04:09:05;;;;;;;6.20;3.73;;;8.80;99.90;;;;;;5087789;28;20406;-75
2022/12/20 04:11:31;;;;;;;6.75;4.20;;;8.80;99.90;;;;;;5087633;28;20916;-75
2022/12/20 04:13:57;;;;;;;5.43;3.60;;;8.80;99.90;;;;;;5087554;28;20406;-75
2022/12/20 04:16:25;;;;;;;6.80;3.67;;;8.90;99.90;;;;;;5086168;28;20404;-75
2022/12/20 04:18:51;;;;;;;6.57;4.18;;;8.80;99.90;;;;;;5087778;28;20421;-75
2022/12/20 04:21:22;;;;;;;8.77;3.97;;;8.80;99.90;;;;;;5093531;28;20396;-75
2022/12/20 04:23:47;;;;;;;6.82;4.10;;;8.90;99.90;;;;;;5081218;28;20496;-75
2022/12/20 04:26:13;;;;;;;7.97;4.53;;;8.90;99.90;;;;;;5079193;28;20477;-75
2022/12/20 04:28:38;;;;;;;8.63;4.47;;;8.90;99.90;;;;;;5082668;28;20914;-75
2022/12/20 04:31:04;;;;;;;6.05;3.83;;;8.90;99.90;;;;;;5086683;28;20394;-75
2022/12/20 04:33:30;;;;;;;8.00;3.87;;;8.90;99.90;;;;;;5087161;28;20893;-75
2022/12/20 04:35:56;;;;;;;6.30;3.90;;;8.90;99.90;;;;;;5087434;28;20443;-75
2022/12/20 04:38:23;;;;;;;5.28;3.80;;;8.90;99.90;;;;;;5081767;28;20529;-75
2022/12/20 04:40:50;;;;;;;7.47;4.13;;;8.90;99.90;;;;;;5087404;28;20390;-75
2022/12/20 04:43:16;;;;;;;6.45;4.07;;;8.90;99.90;;;;;;5084026;28;20418;-75
2022/12/20 04:45:43;;;;;;;7.10;4.10;;;8.90;99.90;;;;;;5087109;28;20402;-75
2022/12/20 04:48:09;;;;;;;6.00;4.03;;;9.00;99.90;;;;;;5077077;28;21070;-75
2022/12/20 04:50:35;;;;;;;7.53;3.97;;;9.00;99.90;;;;;;5079990;28;20430;-75
2022/12/20 04:55:45;;;;;;;7.55;4.45;;;9.00;99.90;;;;;;5080420;28;20413;-75
2022/12/20 04:58:10;;;;;;;7.60;4.30;;;9.00;99.90;;;;;;5079976;28;20423;-75
2022/12/20 05:00:36;;;;;;;7.43;4.10;;;9.00;99.90;;;;;;5087521;28;20542;-75
2022/12/20 05:03:02;;;;;;;7.53;4.18;;;8.90;99.90;;;;;;5084662;28;20411;-75
2022/12/20 05:05:28;;;;;;;7.43;4.68;;;8.90;99.90;;;;;;5086927;28;20390;-75
2022/12/20 05:07:54;;;;;;;6.97;4.47;;;9.00;99.90;;;;;;5087477;28;20472;-75
2022/12/20 05:10:20;;;;;;;6.88;4.53;;;9.00;99.90;;;;;;5091140;28;20425;-75
2022/12/20 05:12:45;;;;;;;5.73;4.23;;;9.00;99.90;;;;;;5072939;28;20901;-75
2022/12/20 05:15:11;;;;;;;7.47;4.45;;;9.10;99.90;;;;;;5086224;28;20408;-75
2022/12/20 05:17:37;;;;;;;7.63;4.30;;;9.10;99.90;;;;;;5090046;28;20425;-75
2022/12/20 05:20:04;;;;;;;6.60;4.43;;;9.10;99.90;;;;;;5085946;28;20399;-75
2022/12/20 05:27:58;;;;;;;6.03;4.35;;;9.20;99.90;;;;;;5089926;28;20437;-75
2022/12/20 05:30:24;;;;;;;7.17;4.13;;;9.30;99.90;;;;;;5090648;28;20426;-75
2022/12/20 05:32:50;;;;;;;6.22;4.10;;;9.30;99.90;;;;;;5090463;28;20404;-75
2022/12/20 05:35:16;;;;;;;6.18;3.80;;;9.30;99.90;;;;;;5090544;28;20394;-75
2022/12/20 05:37:41;;;;;;;6.50;4.33;;;9.40;99.90;;;;;;5071399;28;20424;-75
2022/12/20 05:40:08;;;;;;;7.15;4.35;;;9.40;99.90;;;;;;5088410;28;20430;-75
2022/12/20 05:42:34;;;;;;;6.22;3.70;;;9.40;99.90;;;;;;5090476;28;20456;-75
2022/12/20 05:45:02;;;;;;;7.03;4.00;;;9.40;99.90;;;;;;5090523;28;20799;-75
2022/12/20 05:47:32;;;;;;;8.05;3.92;;;9.40;99.90;;;;;;5085614;28;20412;-75
2022/12/20 05:49:58;;;;;;;5.65;3.90;;;9.40;99.90;;;;;;5088360;28;20444;-75
2022/12/20 05:52:24;;;;;;;7.68;4.00;;;9.50;99.90;;;;;;5089467;28;20402;-75
2022/12/20 05:54:49;;;;;;;7.40;3.95;;;9.50;99.90;;;;;;5087995;28;21127;-75
2022/12/20 05:57:15;;;;;;;6.07;3.80;;;9.50;99.90;;;;;;5061540;28;20518;-75
2022/12/20 05:59:41;;;;;;;6.18;3.60;;;9.50;99.90;;;;;;5088303;28;20462;-75
2022/12/20 06:02:07;;;;;;;6.97;3.67;;;9.50;99.90;;;;;;5084390;28;20442;-75
2022/12/20 06:04:32;;;;;;;6.65;3.50;;;9.50;99.90;;;;;;5079575;28;20411;-75
2022/12/20 06:07:01;;;;;;;5.63;3.40;;;9.50;99.90;;;;;;5089633;28;20841;-75
2022/12/20 06:09:27;;;;;;;6.13;3.63;;;9.50;99.90;;;;;;5078557;28;20406;-75
2022/12/20 06:11:52;;;;;;;5.83;3.53;;;9.60;99.90;;;;;;5079739;28;20434;-75
2022/12/20 06:14:18;;;;;;;5.50;3.03;;;9.50;99.90;;;;;;5088303;28;20409;-75
2022/12/20 06:16:43;;;;;;;4.75;3.00;;;9.60;99.90;;;;;;5087344;28;20406;-75
2022/12/20 06:19:09;;;;;;;5.33;3.10;;;9.60;99.90;;;;;;5086161;28;20434;-75
2022/12/20 06:21:36;;;;;;;7.68;3.60;;;9.60;99.90;;;;;;5081410;28;20509;-75
2022/12/20 06:24:02;;;;;;;6.15;3.03;;;9.60;99.90;;;;;;5087992;28;20493;-75
2022/12/20 06:26:34;;;;;;;6.53;3.63;;;9.60;99.90;;;;;;5088769;28;20766;-74
2022/12/20 06:29:01;;;;;;;4.40;2.87;;;9.60;99.90;;;;;;5088358;28;20398;-75
2022/12/20 06:31:26;;;;;;;6.32;3.08;;;9.60;99.90;;;;;;5088014;28;20487;-75
2022/12/20 06:33:52;;;;;;;6.10;3.40;;;9.70;99.90;;;;;;5087979;28;20398;-75
2022/12/20 06:36:17;;;;;;;3.80;2.90;;;9.60;99.90;;;;;;5088255;28;20403;-75
2022/12/20 06:38:43;;;;;;;5.83;3.10;;;9.60;99.90;;;;;;5082176;28;20430;-75
2022/12/20 06:41:08;;;;;;;4.47;3.00;;;9.60;99.90;;;;;;5088255;28;20875;-75
2022/12/20 06:43:34;;;;;;;5.22;2.83;;;9.60;99.90;;;;;;5074633;28;20486;-75
2022/12/20 06:46:00;;;;;;;5.13;2.83;;;9.60;99.90;;;;;;5088107;28;20397;-75
2022/12/20 06:48:25;;;;;;;5.50;3.08;;;9.60;99.90;;;;;;5087587;28;20406;-75
2022/12/20 06:50:51;;;;;;;6.63;3.00;;;9.60;99.90;;;;;;5083331;28;20408;-75
2022/12/20 06:53:16;;;;;;;6.78;3.10;;;9.70;99.90;;;;;;5086070;28;20406;-74
2022/12/20 06:55:43;;;;;;;6.67;2.93;;;9.70;99.90;;;;;;5087589;28;20405;-74
2022/12/20 06:58:08;;;;;;;7.40;3.33;;;9.70;99.90;;;;;;5088369;28;20600;-75
2022/12/20 07:00:34;;;;;;;5.18;3.08;;;9.70;99.90;;;;;;5055948;28;20501;-75
2022/12/20 07:02:59;;;;;;;4.17;2.83;;;9.70;99.90;;;;;;5074860;28;20529;-75
2022/12/20 07:05:25;;;;;;;6.40;3.20;;;9.80;99.90;;;;;;5079799;28;20419;-75
2022/12/20 07:07:50;;;;;;;5.93;3.20;;;9.70;99.90;;;;;;5087972;28;20480;-75
2022/12/20 07:10:16;;;;;;;5.40;2.83;;;9.80;99.90;;;;;;5071284;28;20422;-75
2022/12/20 07:12:42;;;;;;;4.00;2.93;;;9.80;99.90;;;;;;5084038;28;20977;-75
2022/12/20 07:15:08;;;;;;;5.57;2.92;;;9.80;99.90;;;;;;5078888;28;20432;-75
2022/12/20 07:17:34;;;;;;;6.65;3.05;;;9.80;99.90;;;;;;5085435;28;20411;-75
2022/12/20 07:20:00;;;;;;;4.78;3.00;;;9.80;99.90;;;;;;5072766;28;20428;-75
2022/12/20 07:22:26;;;;;;;5.47;3.07;;;9.80;99.90;;;;;;5079761;28;20444;-75
2022/12/20 07:24:51;;;;;;;5.78;3.55;;;9.80;99.90;;;;;;5080671;28;20423;-75
2022/12/20 07:27:17;;;;;;;5.40;3.28;;;9.90;99.90;;;;;;5091113;28;20522;-75
2022/12/20 07:29:43;;;;;;;5.75;3.80;;;9.90;99.90;;;;;;5087767;28;20453;-75
2022/12/20 07:32:11;;;;;;;6.17;3.97;;;9.90;99.90;;;;;;5077327;28;20438;-75
2022/12/20 07:34:37;;;;;;;6.22;3.78;;;9.80;99.90;;;;;;5087808;28;20398;-75
2022/12/20 07:37:03;;;;;;;6.20;4.22;;;9.80;99.90;;;;;;5083923;28;20433;-75
2022/12/20 07:39:28;;;;;;;8.02;4.57;;;9.70;99.90;;;;;;5084651;28;20428;-75
2022/12/20 07:41:54;;;;;;;7.90;4.57;;;9.70;99.90;;;;;;5078938;28;20407;-75
2022/12/20 07:44:21;;;;;;;6.60;5.10;;;9.70;99.90;;;;;;5076495;28;20407;-75
2022/12/20 07:46:47;;;;;;;8.00;5.27;;;9.60;99.90;;;;;;5080114;28;20416;-75
2022/12/20 07:49:12;;;;;;;9.73;5.57;;;9.60;99.90;;;;;;5070575;28;20422;-75
2022/12/20 07:51:42;;;;;;;9.52;5.82;;;9.60;99.90;;;;;;5083968;28;21070;-75
2022/12/20 07:54:08;;;;;;;7.70;5.50;;;9.60;99.90;;;;;;5077746;28;20475;-75
2022/12/20 07:56:38;;;;;;;8.18;5.88;;;9.60;99.90;;;;;;5082197;28;20425;-75
2022/12/20 07:59:04;;;;;;;8.65;5.45;;;9.60;99.90;;;;;;5085460;28;20422;-75
2022/12/20 08:01:30;;;;;;;8.55;5.85;;;9.60;99.90;;;;;;5069276;28;20426;-75
2022/12/20 08:04:02;;;;;;;9.45;5.70;;;9.60;99.90;;;;;;5077653;28;20437;-75
2022/12/20 08:06:28;;;;;;;9.35;6.18;;;9.60;99.90;;;;;;5080449;28;21068;-75
2022/12/20 08:08:59;;;;;;;10.90;5.93;;;9.60;99.90;;;;;;5081460;28;20472;-75
2022/12/20 08:11:27;;;;;;;8.45;5.75;;;9.60;99.90;;;;;;5072151;28;20400;-75
2022/12/20 08:13:53;;;;;;;8.02;5.85;;;9.60;99.90;;;;;;5067299;28;20398;-75
2022/12/20 08:16:19;;;;;;;9.50;6.00;;;9.60;99.90;;;;;;5074896;28;20405;-75
2022/12/20 08:18:45;;;;;;;9.00;6.18;;;9.60;99.90;;;;;;5080035;28;20432;-75
2022/12/20 08:21:11;;;;;;;10.02;6.13;;;9.70;99.90;;;;;;5077800;28;20402;-75
2022/12/20 08:23:37;;;;;;;8.70;6.15;;;9.70;99.90;;;;;;5083747;28;20431;-75
2022/12/20 08:26:03;;;;;;;8.40;5.72;;;9.70;99.90;;;;;;5075290;28;20915;-75
2022/12/20 08:28:29;;;;;;;9.32;6.35;;;9.70;99.90;;;;;;5081742;28;21067;-74
2022/12/20 08:31:06;;;;;;;10.02;6.45;;;9.70;99.90;;;;;;5084348;28;20446;-74
2022/12/20 08:33:33;;;;;;;9.77;6.15;;;9.60;99.90;;;;;;5084620;28;21102;-75
2022/12/20 08:36:01;;;;;;;8.48;5.95;;;9.70;99.90;;;;;;5082887;28;20472;-75
2022/12/20 08:38:29;;;;;;;8.35;5.80;;;9.70;99.90;;;;;;5086600;28;20974;-75
2022/12/20 08:41:00;;;;;;;7.68;5.65;;;9.70;99.90;;;;;;5080534;28;20574;-75
2022/12/20 08:43:25;;;;;;;8.18;6.00;;;9.70;99.90;;;;;;5080055;28;20823;-75
2022/12/20 08:45:53;;;;;;;8.87;5.77;;;9.70;99.90;;;;;;5075709;28;20423;-75
2022/12/20 08:48:19;;;;;;;8.77;5.70;;;9.70;99.90;;;;;;5087682;28;20418;-75
2022/12/20 08:50:44;;;;;;;9.20;5.63;;;9.70;99.90;;;;;;5057721;28;20431;-75
2022/12/20 08:53:10;;;;;;;7.50;5.40;;;9.70;99.90;;;;;;5087635;28;20402;-75
2022/12/20 08:55:35;;;;;;;7.60;5.60;;;9.70;99.90;;;;;;5071706;28;20502;-75
2022/12/20 08:58:01;;;;;;;8.40;5.70;;;9.70;99.90;;;;;;5089679;28;20414;-75
2022/12/20 09:00:26;;;;;;;7.40;5.10;;;9.70;99.90;;;;;;5087055;28;20496;-75
2022/12/20 09:02:53;;;;;;;7.22;5.05;;;9.70;99.90;;;;;;5077794;28;20412;-75
2022/12/20 09:05:19;;;;;;;8.07;5.38;;;9.70;99.90;;;;;;5071993;28;20487;-75
2022/12/20 09:07:45;;;;;;;8.80;5.63;;;9.70;99.90;;;;;;5070913;28;20483;-75
2022/12/20 09:10:12;;;;;;;8.60;5.53;;;9.70;99.90;;;;;;5077298;28;20403;-75
2022/12/20 09:12:37;;;;;;;10.18;5.85;;;9.70;99.90;;;;;;5077419;28;20438;-75
2022/12/20 09:15:04;;;;;;;8.23;5.15;;;9.70;99.90;;;;;;5078272;28;20814;-73
2022/12/20 09:17:30;;;;;;;6.72;4.43;;;9.70;99.90;;;;;;5087106;28;20422;-75
2022/12/20 09:19:55;;;;;;;9.27;4.93;;;9.70;99.90;;;;;;5086346;28;20809;-75
2022/12/20 09:22:21;;;;;;;7.60;4.47;;;9.80;99.90;;;;;;5086525;28;20916;-75
2022/12/20 09:24:47;;;;;;;5.73;4.13;;;9.80;99.90;;;;;;5086572;28;20421;-75
2022/12/20 09:27:12;;;;;;;6.15;4.07;;;9.80;99.90;;;;;;5086645;28;20430;-75
2022/12/20 09:29:38;;;;;;;7.90;4.00;;;9.80;99.90;;;;;;5086889;28;20401;-75
2022/12/20 09:32:04;;;;;;;8.35;3.95;;;9.80;99.90;;;;;;5087015;28;20406;-75
2022/12/20 09:34:29;;;;;;;6.13;3.87;;;9.80;99.90;;;;;;5082186;28;20419;-75
2022/12/20 09:36:55;;;;;;;7.43;3.78;;;9.80;99.90;;;;;;5079026;28;20426;-75
2022/12/20 09:39:20;;;;;;;7.90;3.63;;;9.90;99.90;;;;;;5084264;28;20429;-75
2022/12/20 09:41:46;;;;;;;4.80;3.28;;;9.90;99.90;;;;;;5086882;28;20399;-75
2022/12/20 09:44:14;;;;;;;4.90;3.50;;;9.90;99.90;;;;;;5088304;28;20418;-75
2022/12/20 09:46:42;;;;;;;6.55;3.25;;;10.00;99.90;;;;;;5082635;28;20425;-75
2022/12/20 09:49:14;;;;;;;6.07;3.30;;;10.00;99.90;;;;;;5077990;28;20403;-75
2022/12/20 09:52:08;;;;;;;4.80;2.78;;;10.10;99.90;;;;;;5080087;28;20932;-75
2022/12/20 09:54:48;;;;;;;5.70;3.05;;;10.10;99.90;;;;;;5076903;28;20475;-75
2022/12/20 09:57:26;;;;;;;5.88;3.00;;;10.10;99.90;;;;;;5079471;28;20455;-75
2022/12/20 09:59:56;;;;;;;5.95;3.05;;;10.20;99.90;;;;;;5076363;28;20406;-75
2022/12/20 10:02:24;;;;;;;5.27;3.00;;;10.20;99.90;;;;;;5080329;28;20406;-75
2022/12/20 10:04:50;;;;;;;5.45;2.80;;;10.30;99.90;;;;;;5076458;28;20404;-75
2022/12/20 10:07:45;;;;;;;5.30;3.28;;;10.30;99.90;;;;;;5076607;28;20464;-75
2022/12/20 10:10:40;;;;;;;5.03;2.92;;;10.30;99.90;;;;;;5076127;28;20410;-75
2022/12/20 10:13:19;;;;;;;5.00;2.70;;;10.30;99.90;;;;;;5065804;28;20939;-75
2022/12/20 10:15:49;;;;;;;7.45;3.40;;;10.30;99.90;;;;;;5081066;28;20427;-75
2022/12/20 10:19:03;;;;;;;5.43;2.53;;;10.30;99.90;;;;;;5078844;28;20455;-75
2022/12/20 10:21:51;;;;;;;5.25;2.85;;;10.30;99.90;;;;;;5077013;28;20934;-75
2022/12/20 10:24:26;;;;;;;5.68;2.88;;;10.30;99.90;;;;;;5088109;28;20406;-75
2022/12/20 10:26:52;;;;;;;4.88;2.90;;;10.30;99.90;;;;;;5087763;28;20418;-75
2022/12/20 10:29:19;;;;;;;6.10;2.70;;;10.30;99.90;;;;;;5079437;28;20420;-75
2022/12/20 10:31:48;;;;;;;4.88;2.65;;;10.40;99.90;;;;;;5082668;28;20476;-75
2022/12/20 10:34:14;;;;;;;6.20;2.50;;;10.40;99.90;;;;;;5084338;28;20422;-75
2022/12/20 10:36:40;;;;;;;5.25;2.40;;;10.40;99.90;;;;;;5086779;28;20421;-75
2022/12/20 10:39:08;;;;;;;5.22;2.50;;;10.50;99.90;;;;;;5083902;28;21021;-75
2022/12/20 10:41:39;;;;;;;4.07;2.25;;;10.50;99.90;;;;;;5084972;28;20422;-75
2022/12/20 10:44:14;;;;;;;5.40;2.50;;;10.50;99.90;;;;;;5092872;28;20404;-75
2022/12/20 10:46:44;;;;;;;5.68;2.47;;;10.50;99.90;;;;;;5084455;28;20505;-75
2022/12/20 10:49:31;;;;;;;4.70;2.60;;;10.50;99.90;;;;;;5078101;28;20529;-75
2022/12/20 10:52:01;;;;;;;7.07;2.33;;;10.60;99.90;;;;;;5078929;28;20773;-75
2022/12/20 10:54:38;;;;;;;4.28;2.35;;;10.60;99.90;;;;;;5080901;28;20414;-75
2022/12/20 10:57:26;;;;;;;5.23;2.60;;;10.50;99.90;;;;;;5074486;28;20987;-74
2022/12/20 11:00:04;;;;;;;5.05;2.30;;;10.60;99.90;;;;;;5085290;28;20394;-74
2022/12/20 11:02:36;;;;;;;4.93;2.47;;;10.60;99.90;;;;;;5083044;28;20427;-75
2022/12/20 11:05:19;;;;;;;5.45;2.58;;;10.60;99.90;;;;;;5075047;28;20500;-75
2022/12/20 11:08:12;;;;;;;4.80;2.40;;;10.70;99.90;;;;;;5082523;28;20414;-75
2022/12/20 11:10:38;;;;;;;4.70;2.43;;;10.70;99.90;;;;;;5082769;28;20413;-75
2022/12/20 11:13:03;;;;;;;3.78;2.42;;;10.70;99.90;;;;;;5080284;28;20414;-75
2022/12/20 11:15:31;;;;;;;5.23;2.40;;;10.70;99.90;;;;;;5086151;28;20403;-75
2022/12/20 11:18:18;;;;;;;4.07;2.27;;;10.80;99.90;;;;;;5081870;28;20424;-75
2022/12/20 11:21:06;;;;;;;5.13;2.42;;;10.70;99.90;;;;;;5080470;28;20532;-75
2022/12/20 11:23:44;;;;;;;4.75;2.38;;;10.70;99.90;;;;;;5080154;28;20432;-75
2022/12/20 11:26:15;;;;;;;4.60;2.65;;;10.70;99.90;;;;;;5068938;28;20428;-75
2022/12/20 11:29:15;;;;;;;7.72;2.50;;;10.70;99.90;;;;;;5083255;28;20419;-75
2022/12/20 11:32:04;;;;;;;5.15;2.67;;;10.70;99.90;;;;;;5080359;28;20439;-75
2022/12/20 11:34:57;;;;;;;6.95;2.60;;;10.70;99.90;;;;;;5070572;28;20435;-75
2022/12/20 11:37:26;;;;;;;4.55;2.78;;;10.60;99.90;;;;;;5069218;28;20447;-75
2022/12/20 11:40:10;;;;;;;6.88;3.00;;;10.60;99.90;;;;;;5083897;28;20414;-75
2022/12/20 11:43:14;;;;;;;6.05;2.97;;;10.50;99.90;;;;;;5072430;28;20408;-75
2022/12/20 11:46:00;;;;;;;7.40;2.88;;;10.50;99.90;;;;;;5070430;28;20422;-75
2022/12/20 11:48:48;;;;;;;4.57;2.70;;;10.50;99.90;;;;;;5069106;28;20418;-75
2022/12/20 11:51:23;;;;;;;4.80;2.67;;;10.50;99.90;;;;;;5073567;28;20410;-76
2022/12/20 11:54:09;;;;;;;5.75;3.08;;;10.50;99.90;;;;;;5081100;28;20412;-75
2022/12/20 11:56:39;;;;;;;7.10;3.00;;;10.50;99.90;;;;;;5083550;28;20415;-75
2022/12/20 11:59:25;;;;;;;6.35;3.10;;;10.50;99.90;;;;;;5070386;28;20791;-76
2022/12/20 12:02:02;;;;;;;5.82;3.13;;;10.50;99.90;;;;;;5073528;28;21138;-75
2022/12/20 12:04:45;;;;;;;5.15;3.05;;;10.50;99.90;;;;;;5079429;28;21341;-75
2022/12/20 12:07:21;;;;;;;5.70;2.83;;;10.50;99.90;;;;;;5079195;28;20420;-75
2022/12/20 12:09:56;;;;;;;5.78;3.00;;;10.50;99.90;;;;;;5079276;28;20396;-75
2022/12/20 12:12:42;;;;;;;6.72;3.20;;;10.50;99.90;;;;;;5078403;28;20848;-76
2022/12/20 12:15:14;;;;;;;6.55;2.75;;;10.50;99.90;;;;;;5078890;28;21084;-75
2022/12/20 12:17:47;;;;;;;4.97;2.60;;;10.50;99.90;;;;;;5076842;28;20417;-75
2022/12/20 12:20:25;;;;;;;5.17;2.90;;;10.50;99.90;;;;;;5079938;28;20431;-75
2022/12/20 12:23:00;;;;;;;6.13;2.90;;;10.50;99.90;;;;;;5082597;28;20426;-75
2022/12/20 12:25:25;;;;;;;6.38;2.80;;;10.50;99.90;;;;;;5081498;28;20419;-76
2022/12/20 12:27:51;;;;;;;5.75;2.85;;;10.40;99.90;;;;;;5076814;28;20912;-75
2022/12/20 12:30:17;;;;;;;4.97;3.03;;;10.50;99.90;;;;;;5083512;28;20414;-75
2022/12/20 12:32:53;;;;;;;5.35;2.78;;;10.50;99.90;;;;;;5080002;28;20418;-75
2022/12/20 12:35:50;;;;;;;6.47;3.08;;;10.50;99.90;;;;;;5069517;28;20480;-75
2022/12/20 12:38:46;;;;;;;5.85;3.22;;;10.50;99.90;;;;;;5077771;28;20566;-75
2022/12/20 12:41:33;;;;;;;5.05;2.80;;;10.50;99.90;;;;;;5081078;28;20411;-75
2022/12/20 12:44:31;;;;;;;6.00;3.40;;;10.50;99.90;;;;;;5069961;28;20446;-75
2022/12/20 12:47:11;;;;;;;6.28;3.13;;;10.50;99.90;;;;;;5070320;28;20889;-76
2022/12/20 12:49:39;;;;;;;5.63;3.50;;;10.50;99.90;;;;;;5083160;28;20410;-75
2022/12/20 12:52:05;;;;;;;8.10;3.58;;;10.50;99.90;;;;;;5080843;28;20403;-75
2022/12/20 12:54:40;;;;;;;6.43;4.00;;;10.50;99.90;;;;;;5080304;28;20404;-75
2022/12/20 12:57:23;;;;;;;5.82;3.70;;;10.50;99.90;;;;;;5078354;28;20456;-75
2022/12/20 12:59:50;;;;;;;8.82;4.20;;;10.50;99.90;;;;;;5094272;28;20428;-75
2022/12/20 13:02:16;;;;;;;5.68;3.88;;;10.50;99.90;;;;;;5083133;28;20400;-75
2022/12/20 13:05:20;;;;;;;7.15;4.07;;;10.40;99.90;;;;;;5089504;28;20412;-75
2022/12/20 13:07:45;;;;;;;7.20;4.32;;;10.40;99.90;;;;;;5082942;28;20437;-76
2022/12/20 13:10:14;;;;;;;7.60;4.35;;;10.40;99.90;;;;;;5077190;28;20418;-75
2022/12/20 13:12:39;;;;;;;7.10;4.13;;;10.40;99.90;;;;;;5081833;28;20410;-75
2022/12/20 13:15:20;;;;;;;6.85;4.07;;;10.40;99.90;;;;;;5085237;28;20410;-75
2022/12/20 13:18:10;;;;;;;6.80;4.30;;;10.40;99.90;;;;;;5082923;28;20406;-75